Latest Weather Observations for Blackall

IDQ60801

Issued at 4:02 pm EST Sunday 2 August 2015 (issued every 30 minutes, with the page automatically refreshed every 10 minutes)

About weather observations | Map of weather stations | Latest weather observations for QLD | Other Formats
Station Details ID: 036034 Name: BLACKALL AIRPORT Lat: -24.43 Lon: 145.43 Height: 281.3 m
Data from the previous 72 hours. | See also: Recent months at Blackall
Date/Time
EST
Temp
°C
App
Temp
°C
Dew
Point
Rel
Hum
%
Delta-T
°C
Wind Press
QNH
hPa
Press
MSL
hPa
Rain
since 9 am
mm
Dir
 
Spd
km/h
Gust
km/h
Spd
kts
Gust
kts
02/04:00pm 26.8 22.8 5.1 25 11.2 NNW 15 43 8 23 1018.5 1018.0 0.0
02/03:30pm 27.1 22.8 5.4 25 11.3 NNW 17 26 9 14 1018.6 1018.1 0.0
02/03:00pm 26.8 23.1 4.6 24 11.4 NW 13 24 7 13 1018.7 1018.2 0.0
02/02:30pm 26.8 22.6 5.7 26 11.0 N 17 28 9 15 1018.9 1018.4 0.0
02/02:00pm 26.3 21.6 5.3 26 10.9 N 19 26 10 14 1019.1 1018.6 0.0
02/01:30pm 25.7 21.1 5.8 28 10.4 N 19 28 10 15 1019.5 1019.0 0.0
02/01:00pm 25.4 20.7 6.1 29 10.1 N 20 35 11 19 1019.9 1019.4 0.0
02/12:30pm 25.2 19.8 6.4 30 9.9 N 24 35 13 19 1020.4 1019.9 0.0
02/12:00pm 24.3 18.2 6.6 32 9.2 NNE 28 41 15 22 1021.1 1020.7 0.0
02/11:30am 23.3 17.2 6.6 34 8.7 N 28 39 15 21 1021.4 1021.0 0.0
02/11:00am 23.5 17.6 7.6 36 8.4 N 28 37 15 20 1021.9 1021.4 0.0
02/10:30am 21.7 15.9 6.4 37 7.9 N 26 37 14 20 1022.2 1021.7 0.0
02/10:00am 20.7 15.4 6.6 40 7.2 N 24 35 13 19 1022.5 1022.0 0.0
02/09:30am 20.0 14.5 7.4 44 6.5 NNE 26 39 14 21 1022.6 1022.1 0.0
02/09:00am 17.6 12.1 5.9 46 5.8 N 24 33 13 18 1022.4 1021.9 0.0
02/08:30am 16.3 12.1 5.6 49 5.2 NNE 17 26 9 14 1022.0 1021.5 0.0
02/08:00am 13.9 10.7 5.0 55 4.2 NE 11 15 6 8 1021.9 1021.4 0.0
02/07:30am 12.1 9.1 4.1 58 3.7 NE 9 13 5 7 1021.5 1021.1 0.0
02/07:00am 11.8 8.8 4.1 59 3.5 NE 9 11 5 6 1021.1 1020.7 0.0
02/06:30am 11.8 8.4 4.1 59 3.5 NE 11 13 6 7 1020.7 1020.2 0.0
02/06:00am 11.9 8.8 3.7 57 3.7 NE 9 11 5 6 1020.2 1019.7 0.0
02/05:30am 12.3 8.8 3.5 55 4.0 NE 11 13 6 7 1020.0 1019.5 0.0
02/05:00am 12.8 9.0 3.7 54 4.1 NE 13 17 7 9 1019.8 1019.3 0.0
02/04:30am 13.5 9.7 3.8 52 4.5 NE 13 17 7 9 1019.8 1019.3 0.0
02/04:00am 13.5 10.0 3.3 50 4.6 ENE 11 15 6 8 1019.9 1019.4 0.0
02/03:30am 12.9 9.7 3.0 51 4.5 ENE 9 13 5 7 1020.1 1019.6 0.0
02/03:00am 12.4 9.4 2.3 50 4.4 ENE 7 11 4 6 1020.1 1019.6 0.0
02/02:30am 13.7 10.9 2.9 48 4.9 NE 7 9 4 5 1020.2 1019.7 0.0
02/02:00am 14.2 11.0 3.1 47 5.0 ENE 9 13 5 7 1020.2 1019.7 0.0
02/01:30am 14.8 10.8 3.0 45 5.4 NE 13 15 7 8 1020.3 1019.8 0.0
02/01:00am 15.4 11.0 2.9 43 5.7 ENE 15 19 8 10 1020.3 1019.8 0.0
02/12:30am 15.8 11.8 2.6 41 6.0 ENE 13 17 7 9 1020.4 1019.9 0.0
02/12:00am 14.7 11.3 1.9 42 5.7 ENE 9 11 5 6 1020.6 1020.1 0.0
 
Date/Time
EST
Temp
°C
App
Temp
°C
Dew
Point
Rel
Hum
%
Delta-T
°C
Wind Press
QNH
hPa
Press
MSL
hPa
Rain
since 9 am
mm
Dir
 
Spd
km/h
Gust
km/h
Spd
kts
Gust
kts
01/11:30pm 14.5 11.0 1.4 41 5.8 ENE 9 11 5 6 1020.7 1020.2 0.0
01/11:00pm 15.3 12.3 1.8 40 6.0 NNE 7 11 4 6 1020.7 1020.2 0.0
01/10:30pm 16.7 13.1 2.7 39 6.5 NE 11 13 6 7 1020.5 1020.0 0.0
01/10:00pm 16.3 13.0 2.7 40 6.2 ENE 9 13 5 7 1020.5 1020.0 0.0
01/09:30pm 16.4 13.4 2.1 38 6.5 NE 7 7 4 4 1020.6 1020.1 0.0
01/09:00pm 16.7 13.6 1.6 36 6.8 NNE 7 9 4 5 1020.6 1020.1 0.0
01/08:30pm 19.0 15.7 2.4 33 7.7 NE 9 13 5 7 1020.4 1019.9 0.0
01/08:00pm 19.8 16.1 2.6 32 8.1 NE 11 13 6 7 1020.2 1019.7 0.0
01/07:30pm 19.6 16.3 2.5 32 8.0 NE 9 11 5 6 1020.0 1019.5 0.0
01/07:00pm 19.3 15.7 0.8 29 8.4 NNE 9 11 5 6 1019.6 1019.1 0.0
01/06:30pm 22.2 18.9 2.3 27 9.5 NNE 9 11 5 6 1019.3 1018.8 0.0
01/06:00pm 23.6 20.0 3.0 26 10.0 NNE 11 13 6 7 1019.0 1018.5 0.0
01/05:30pm 25.5 21.8 2.2 22 11.4 NE 11 15 6 8 1018.9 1018.4 0.0
01/05:00pm 26.3 22.6 2.3 21 11.8 NE 11 17 6 9 1018.7 1018.2 0.0
01/04:30pm 26.7 22.2 1.9 20 12.1 NE 15 24 8 13 1018.7 1018.2 0.0
01/04:00pm 27.1 23.0 2.2 20 12.2 NNE 13 24 7 13 1018.7 1018.2 0.0
01/03:30pm 26.5 21.2 1.7 20 12.1 N 19 28 10 15 1018.6 1018.1 0.0
01/03:00pm 27.0 22.2 2.8 21 12.0 NNE 17 28 9 15 1018.7 1018.2 0.0
01/02:30pm 26.7 22.0 3.2 22 11.8 NNE 17 28 9 15 1019.0 1018.5 0.0
01/02:00pm 26.8 22.4 4.6 24 11.4 NNE 17 43 9 23 1019.2 1018.7 0.0
01/01:30pm 26.6 21.9 5.0 25 11.2 NNE 19 24 10 13 1019.9 1019.4 0.0
01/01:00pm 25.4 19.9 4.0 25 10.7 NNE 22 35 12 19 1020.3 1019.8 0.0
01/12:30pm 25.1 19.5 3.7 25 10.7 NNE 22 33 12 18 1021.0 1020.6 0.0
01/12:00pm 25.2 19.7 3.8 25 10.7 NNE 22 33 12 18 1021.7 1021.2 0.0
01/11:30am 24.7 19.3 4.5 27 10.2 NNE 22 35 12 19 1022.1 1021.6 0.0
01/11:00am 23.7 18.7 4.6 29 9.6 NNE 20 30 11 16 1022.6 1022.1 0.0
01/10:30am 23.4 18.1 4.9 30 9.3 NNE 22 28 12 15 1022.8 1022.3 0.0
01/10:00am 21.6 17.2 4.7 33 8.4 NNE 17 24 9 13 1023.0 1022.5 0.0
01/09:30am 19.6 15.5 4.1 36 7.5 NNE 15 20 8 11 1023.3 1023.1 0.0
01/09:00am 17.8 14.5 4.4 41 6.4 NNE 11 19 6 10 1023.1 1022.9 0.0
01/08:30am 15.1 12.1 4.2 48 5.1 ENE 9 11 5 6 1022.7 1022.4 0.0
01/08:00am 12.0 9.2 3.0 54 4.0 E 7 9 4 5 1022.4 1022.1 0.0
01/07:30am 8.3 5.2 1.2 61 2.9 ESE 7 7 4 4 1022.0 1021.7 0.0
01/07:00am 7.1 4.0 0.1 61 2.8 ESE 6 7 3 4 1021.7 1021.4 0.0
01/06:30am 7.8 4.4 -0.4 56 3.2 ESE 7 7 4 4 1021.2 1021.0 0.0
01/06:00am 9.4 6.3 1.1 56 3.4 E 7 9 4 5 1020.8 1020.6 0.0
01/05:30am 9.7 6.5 0.9 54 3.7 ESE 7 9 4 5 1020.4 1020.2 0.0
01/05:00am 10.2 6.6 0.8 52 3.9 ESE 9 9 5 5 1020.2 1020.0 0.0
01/04:30am 10.5 6.9 0.8 51 4.1 E 9 11 5 6 1020.1 1019.9 0.0
01/04:00am 10.5 6.9 0.5 50 4.1 ESE 9 11 5 6 1020.2 1020.0 0.0
01/03:30am 10.8 7.2 0.5 49 4.3 ESE 9 9 5 5 1020.4 1020.2 0.0
01/03:00am 10.8 7.2 0.5 49 4.3 E 9 11 5 6 1020.5 1020.3 0.0
01/02:30am 10.9 7.2 0.0 47 4.5 ESE 9 11 5 6 1020.7 1020.5 0.0
01/02:00am 11.8 8.6 0.6 46 4.7 E 7 9 4 5 1020.9 1020.7 0.0
01/01:30am 10.8 7.2 0.5 49 4.3 ESE 9 11 5 6 1021.1 1020.9 0.0
01/01:00am 10.8 7.1 0.2 48 4.4 ESE 9 9 5 5 1021.4 1021.2 0.0
01/12:30am 10.3 7.0 0.3 50 4.1 SE 7 9 4 5 1021.7 1021.4 0.0
01/12:00am 10.9 7.9 0.6 49 4.3 S 6 6 3 3 1021.9 1021.6 0.0
 
Date/Time
EST
Temp
°C
App
Temp
°C
Dew
Point
Rel
Hum
%
Delta-T
°C
Wind Press
QNH
hPa
Press
MSL
hPa
Rain
since 9 am
mm
Dir
 
Spd
km/h
Gust
km/h
Spd
kts
Gust
kts
31/11:30pm 11.5 8.5 0.9 48 4.5 ESE 6 6 3 3 1022.0 1021.7 0.0
31/11:00pm 11.7 8.5 0.5 46 4.7 E 7 9 4 5 1022.2 1021.9 0.0
31/10:30pm 13.7 10.7 0.7 41 5.6 ENE 6 7 3 4 1021.9 1021.6 0.0
31/10:00pm 14.4 11.0 2.0 43 5.5 ESE 9 17 5 9 1021.8 1021.5 0.0
31/09:30pm 13.1 10.0 1.1 44 5.2 SE 7 9 4 5 1021.7 1021.4 0.0
31/09:00pm 14.1 11.0 1.1 41 5.6 SSE 7 9 4 5 1021.5 1021.3 0.0
31/08:30pm 15.3 11.7 0.3 36 6.5 S 9 11 5 6 1021.4 1021.2 0.0
31/08:00pm 15.8 12.3 1.5 38 6.4 SSW 9 11 5 6 1021.1 1020.9 0.0
31/07:30pm 16.0 14.2 1.0 36 6.6 CALM 0 9 0 5 1021.0 1020.8 0.0
31/07:00pm 17.6 15.8 1.2 33 7.4 CALM 0 0 0 0 1020.6 1020.4 0.0
31/06:30pm 19.9 18.1 1.4 29 8.5 CALM 0 0 0 0 1020.2 1020.0 0.0
31/06:00pm 22.7 21.0 1.7 25 9.9 CALM 0 0 0 0 1020.0 1019.8 0.0
31/05:30pm 24.8 23.1 1.7 22 11.1 CALM 0 0 0 0 1019.9 1019.7 0.0
31/05:00pm 25.5 22.7 2.2 22 11.3 W 6 9 3 5 1019.7 1019.4 0.0
31/04:30pm 25.7 22.9 1.8 21 11.6 SW 6 9 3 5 1019.6 1019.3 0.0
31/04:00pm 25.5 22.6 1.6 21 11.5 SSW 6 9 3 5 1019.6 1019.3 0.0
31/03:30pm 26.1 24.0 1.4 20 11.9 NW 2 6 1 3 1020.0 1019.8 0.0
31/03:00pm 25.3 22.4 2.7 23 11.1 WSW 7 19 4 10 1020.3 1020.1 0.0
31/02:30pm 25.2 23.0 3.2 24 10.9 ENE 4 9 2 5 1020.6 1020.4 0.0
31/02:00pm 25.0 21.7 2.4 23 11.0 NE 9 13 5 7 1020.9 1020.7 0.0
31/01:30pm 24.9 22.6 3.0 24 10.8 NNW 4 11 2 6 1021.4 1021.2 0.0
31/01:00pm 24.4 23.0 3.7 26 10.3 CALM 0 7 0 4 1022.2 1021.9 0.0
31/12:30pm 23.7 21.3 4.1 28 9.8 S 6 11 3 6 1022.8 1022.5 0.0
31/12:00pm 23.8 22.5 6.1 32 9.1 SE 2 7 1 4 1023.5 1023.3 0.0
31/11:30am 23.2 21.3 7.7 37 8.2 NNW 7 11 4 6 1023.8 1023.6 0.0
31/11:00am 22.2 20.3 9.0 43 7.1 NNW 9 13 5 7 1024.3 1024.1 0.0
31/10:30am 20.7 18.3 8.7 46 6.4 N 11 15 6 8 1024.6 1024.4 0.0
31/10:00am 18.9 16.5 8.8 52 5.3 N 11 17 6 9 1024.7 1024.5 0.0
31/09:30am 17.5 15.0 8.4 55 4.7 N 11 17 6 9 1024.8 1024.6 0.0
31/09:00am 15.3 13.4 6.8 57 4.2 NE 6 11 3 6 1024.5 1024.3 0.0
31/08:30am 13.1 11.0 4.0 54 4.2 E 4 7 2 4 1024.2 1024.0 0.0
31/08:00am 10.6 7.6 2.2 56 3.6 ESE 7 9 4 5 1024.0 1023.8 0.0
31/07:30am 7.2 3.9 0.0 60 2.9 SE 7 7 4 4 1023.7 1023.5 0.0
31/07:00am 6.2 2.8 -0.3 63 2.5 SE 7 9 4 5 1023.4 1023.2 0.0
31/06:30am 6.2 2.9 -0.1 64 2.5 ESE 7 9 4 5 1023.0 1022.8 0.0
31/06:00am 5.6 2.2 -0.9 63 2.5 SE 7 9 4 5 1022.7 1022.4 0.0
31/05:30am 5.9 2.6 -1.0 61 2.6 S 6 7 3 4 1022.4 1022.1 0.0
31/05:00am 6.2 4.1 -1.0 60 2.7 CALM 0 0 0 0 1022.1 1021.8 0.0
31/04:30am 6.8 4.7 -0.9 58 3.0 CALM 0 0 0 0 1022.1 1021.8 0.0
31/04:00am 6.9 3.7 -0.8 58 3.0 ESE 6 7 3 4 1022.1 1021.8 0.0
31/03:30am 7.8 4.4 -0.7 55 3.3 ESE 7 9 4 5 1022.2 1021.9 0.0
31/03:00am 7.9 4.5 -0.8 54 3.4 ESE 7 9 4 5 1022.1 1021.8 0.0
31/02:30am 7.9 4.5 -0.3 56 3.3 SE 7 7 4 4 1022.3 1022.0 0.0
31/02:00am 7.4 3.6 -0.8 56 3.2 SE 9 9 5 5 1022.6 1022.3 0.0
31/01:30am 7.5 4.1 -0.9 55 3.3 SE 7 9 4 5 1022.8 1022.5 0.0
31/01:00am 8.0 4.8 -0.7 54 3.4 SE 6 7 3 4 1022.8 1022.5 0.0
31/12:30am 8.4 5.1 -0.9 52 3.7 S 6 7 3 4 1023.1 1022.9 0.0
31/12:00am 9.4 7.3 -0.8 49 4.0 CALM 0 0 0 0 1023.4 1023.2 0.0
 
Date/Time
EST
Temp
°C
App
Temp
°C
Dew
Point
Rel
Hum
%
Delta-T
°C
Wind Press
QNH
hPa
Press
MSL
hPa
Rain
since 9 am
mm
Dir
 
Spd
km/h
Gust
km/h
Spd
kts
Gust
kts
30/11:30pm 10.3 7.5 -0.5 47 4.4 ENE 4 7 2 4 1023.4 1023.2 0.0
30/11:00pm 11.3 8.0 0.4 47 4.5 ENE 7 9 4 5 1023.6 1023.4 0.0
30/10:30pm 11.6 8.3 0.1 45 4.8 E 7 9 4 5 1023.7 1023.5 0.0
30/10:00pm 11.1 7.7 -0.4 45 4.7 SSE 7 7 4 4 1023.9 1023.7 0.0
30/09:30pm 12.3 10.3 0.1 43 5.1 CALM 0 0 0 0 1023.8 1023.6 0.0
30/09:00pm 12.8 10.1 0.5 43 5.2 SSE 4 6 2 3 1023.6 1023.4 0.0
30/08:30pm 13.5 9.8 0.2 40 5.7 S 9 9 5 5 1023.6 1023.4 0.0
30/08:00pm 14.4 11.2 0.6 39 5.9 S 7 9 4 5 1023.2 1023.0 0.0
30/07:30pm 15.8 12.2 0.8 36 6.6 SSW 9 11 5 6 1023.1 1022.9 0.0
30/07:00pm 16.0 14.1 0.6 35 6.7 CALM 0 0 0 0 1022.7 1022.4 0.0
30/06:30pm 17.8 15.9 0.5 31 7.7 CALM 0 0 0 0 1022.5 1022.2 0.0
30/06:00pm 21.2 19.4 1.0 26 9.3 CALM 0 0 0 0 1022.3 1022.0 0.0
30/05:30pm 23.2 21.4 0.9 23 10.4 CALM 0 0 0 0 1022.2 1021.9 0.0
30/05:00pm 24.6 22.8 1.5 22 11.0 CALM 0 0 0 0 1022.1 1021.8 0.0
30/04:30pm 24.4 22.2 1.3 22 11.0 SW 2 9 1 5 1022.1 1021.8 0.0

Other Formats:

Comma delimited format used in spreadsheet applications
http://www.bom.gov.au/fwo/IDQ60801/IDQ60801.95351.axf

JavaScript Object Notation format (JSON) in row-major order
http://www.bom.gov.au/fwo/IDQ60801/IDQ60801.95351.json